Flight Track Log - Related Links

Times and Time Zones

All times are in EDT time to prevent confusion due to time zone crossing. See the XOJ793 flight status page for this flight to view local times or setup timezone preferences in your user account.

Time Position Orientation Groundspeed Altitude Reporting Facility
EDT Latitude Longitude Course Direction KTS MPH feet Rate Location/Type
Thu 10:32:33 PM 41.7333 -74.8333 209° Southwest 202 232 3,700  Level New York TRACON
Thu 10:33:33 PM 41.6667 -74.8833 209° Southwest 263 303 4,100 900 Climbing New York TRACON
Thu 10:34:33 PM 41.6000 -74.9000 191° South 246 283 5,500 1,900 Climbing New York TRACON
Thu 10:35:33 PM 41.5500 -74.9500 217° Southwest 256 295 7,900 1,800 Climbing New York TRACON
Thu 10:36:33 PM 41.5167 -75.0500 246° West 293 337 9,100 1,050 Climbing New York TRACON
Thu 10:37:33 PM 41.5000 -75.1500 257° West 298 343 10,000 450 Climbing New York TRACON
Thu 10:38:33 PM 41.4833 -75.2667 259° West 321 369 10,000  Level New York TRACON
Thu 10:39:33 PM 41.4833 -75.3833 270° West 333 383 10,000  Level New York TRACON
Thu 10:40:33 PM 41.4583 -75.5017 254° West 276 318 10,000  Level New York Center
Thu 10:41:32 PM 41.3889 -75.5742 218° Southwest 330 380 10,000  Level New York Center
Thu 10:42:33 PM 41.3022 -75.6592 216° Southwest 348 400 10,000  Level New York Center
Thu 10:43:32 PM 41.2219 -75.6864 194° South 343 395 10,000  Level New York Center
Thu 10:44:32 PM 41.1150 -75.6511 166° South 326 375 10,000  Level New York Center
Thu 10:45:33 PM 41.0206 -75.6197 166° South 344 396 10,000  Level New York Center
Thu 10:46:34 PM 40.9278 -75.5911 167° South 356 410 10,000  Level New York Center
Thu 10:47:34 PM 40.8333 -75.5597 166° South 349 402 10,000  Level New York Center
Thu 10:48:33 PM 40.7408 -75.5286 166° South 349 402 10,000  Level New York Center
Thu 10:49:32 PM 40.6483 -75.4975 166° South 350 403 10,000  Level New York Center
Thu 10:50:34 PM 40.5783 -75.4736 165° South 314 361 10,000 -100 Level New York Center
Thu 10:51:32 PM 40.5000 -75.4492 167° South 301 346 9,800 -504 Descending New York Center
Thu 10:52:33 PM 40.4219 -75.4247 167° South 279 321 9,000 -393 Descending New York Center
Thu 10:53:34 PM 40.3644 -75.4044 165° South 253 291 9,000 -252 Level New York Center
Thu 10:54:32 PM 40.2964 -75.3836 167° South 236 272 8,500 -500 Descending New York Center
Thu 10:55:34 PM 40.2328 -75.3603 164° South 236 272 8,000 -250 Descending New York Center
Thu 10:56:32 PM 40.1769 -75.3431 167° South 239 275 8,000 -504 Level New York Center
Thu 10:57:33 PM 40.1111 -75.3225 167° South 227 261 7,000 -984 Descending New York Center
Thu 10:58:34 PM 40.0644 -75.2894 152° Southeast 221 254 6,000 -992 Descending New York Center
Thu 10:59:34 PM 40.0161 -75.2456 145° Southeast 216 249 5,000 -484 Descending New York Center
Thu 11:00:38 PM 40.0000 -75.1667 105° East 210 242 5,000  Level Philadelphia TRACON
Thu 11:01:38 PM 40.0167 -75.0833 75° East 207 238 5,000 -300 Level Philadelphia TRACON
Thu 11:02:38 PM 40.0167 -75.0167 90° East 206 237 4,400 -500 Descending Philadelphia TRACON
Thu 11:03:38 PM 40.0333 -74.9500 72° East 207 238 4,000 -550 Descending Philadelphia TRACON
Thu 11:04:38 PM 40.0167 -74.8833 108° East 207 238 3,300 -500 Descending Philadelphia TRACON
Thu 11:05:38 PM 39.9667 -74.9000 194° South 189 217 3,000 -149 Descending Philadelphia TRACON
Thu 11:06:39 PM 39.9333 -74.9500 229° Southwest 126 145 3,000  Level Philadelphia TRACON
Thu 11:07:39 PM 39.9167 -74.9833 237° Southwest 126 145 3,000  Level Philadelphia TRACON
Thu 11:08:39 PM 39.9167 -75.0333 270° West 125 144 3,000 -200 Level Philadelphia TRACON
Thu 11:09:39 PM 39.9000 -75.0833 247° West 128 147 2,600 -524 Descending Philadelphia TRACON
Thu 11:10:45 PM 39.8833 -75.1167 237° Southwest 123 142 1,900 -667 Descending Philadelphia TRACON
Thu 11:11:45 PM 39.8833 -75.1667 270° West 122 140 1,200 -632 Descending Philadelphia TRACON
Thu 11:12:39 PM 39.8833 -75.2000 270° West 118 136 700 -556 Descending Philadelphia TRACON
Thu 11:14:00 PM 39.8667 -75.2333 228° Southwest  Level FlightAware Approximate
Thu 11:21:00 PM 39.8722 -75.2409 228° Southwest  Level Estimated

Login

Don't have an account? Register now (free) for customized features, flight alerts, and more!